Time;durP1;ratioP1;P1;durP2;ratioP2;P2;SDS_P1;SDS_P2;PMS_P1;PMS_P2;Temp;Humidity;BMP_temperature;BMP_pressure;BME280_temperature;BME280_humidity;BME280_pressure;Samples;Min_cycle;Max_cycle;Signal;HPM_P1;HPM_P2
2021/10/27 00:01:02;;;;;;;;;;;20.90;99.90;;;;;;4945866;29;19929;-76
2021/10/27 00:03:28;;;;;;;;;;;20.90;99.90;;;;;;4966572;28;20369;-75
2021/10/27 00:05:55;;;;;;;;;;;21.10;99.90;;;;;;4973988;28;20022;-74
2021/10/27 00:08:22;;;;;;;;;;;21.30;99.90;;;;;;4974286;28;19910;-74
2021/10/27 00:10:49;;;;;;;;;;;21.40;99.90;;;;;;4974259;28;19950;-72
2021/10/27 00:13:16;;;;;;;;;;;21.50;99.90;;;;;;4973945;28;20320;-73
2021/10/27 00:15:43;;;;;;;;;;;21.50;99.90;;;;;;4973987;28;19910;-74
2021/10/27 00:18:10;;;;;;;;;;;21.60;99.90;;;;;;4973882;28;19965;-73
2021/10/27 00:20:37;;;;;;;;;;;21.70;99.90;;;;;;4973835;28;19968;-73
2021/10/27 00:23:04;;;;;;;;;;;21.80;99.90;;;;;;4974289;28;19960;-74
2021/10/27 00:25:30;;;;;;;;;;;21.80;99.90;;;;;;4973713;28;19914;-73
2021/10/27 00:27:57;;;;;;;;;;;21.90;99.90;;;;;;4973918;28;20387;-74
2021/10/27 00:30:24;;;;;;;;;;;21.80;99.90;;;;;;4974118;28;19957;-76
2021/10/27 00:32:51;;;;;;;;;;;21.70;99.90;;;;;;4974027;28;19910;-76
2021/10/27 00:35:17;;;;;;;;;;;21.80;99.90;;;;;;4973728;28;19922;-79
2021/10/27 00:37:44;;;;;;;;;;;22.00;99.90;;;;;;4973767;28;19918;-76
2021/10/27 00:40:12;;;;;;;;;;;22.30;99.90;;;;;;4973012;28;20061;-77
2021/10/27 00:42:38;;;;;;;;;;;22.50;99.90;;;;;;4959144;28;19966;-81
2021/10/27 00:45:05;;;;;;;;;;;23.00;99.90;;;;;;4955806;28;19954;-76
2021/10/27 00:47:32;;;;;;;;;;;23.30;99.90;;;;;;4955231;28;19914;-81
2021/10/27 00:49:59;;;;;;;;;;;23.60;99.90;;;;;;4960217;28;20317;-77
2021/10/27 00:52:25;;;;;;;;;;;23.70;99.90;;;;;;4960982;28;19914;-76
2021/10/27 00:54:57;;;;;;;;;;;24.00;99.90;;;;;;4964632;28;19922;-79
2021/10/27 00:57:24;;;;;;;;;;;24.20;99.90;;;;;;4967082;28;19922;-81
2021/10/27 00:59:51;;;;;;;;;;;23.70;99.90;;;;;;4955937;28;19910;-74
2021/10/27 01:02:19;;;;;;;;;;;23.90;99.90;;;;;;4972932;28;20413;-75
2021/10/27 01:04:46;;;;;;;;;;;23.90;99.90;;;;;;4973520;28;20216;-74
2021/10/27 01:07:13;;;;;;;;;;;23.70;99.90;;;;;;4973397;28;20250;-75
2021/10/27 01:09:41;;;;;;;;;;;24.20;99.90;;;;;;4973446;28;19982;-77
2021/10/27 01:12:08;;;;;;;;;;;24.10;99.90;;;;;;4972337;28;19914;-75
2021/10/27 01:14:40;;;;;;;;;;;24.00;99.90;;;;;;4955373;28;19996;-73
2021/10/27 01:17:07;;;;;;;;;;;24.20;99.90;;;;;;4973461;28;19918;-73
2021/10/27 01:19:47;;;;;;;;;;;23.90;99.90;;;;;;4973008;28;20360;-74
2021/10/27 01:22:26;;;;;;;;;;;23.50;99.90;;;;;;4972879;28;19910;-73
2021/10/27 01:24:53;;;;;;;;;;;23.60;99.90;;;;;;4956070;28;20379;-74
2021/10/27 01:27:20;;;;;;;;;;;23.50;99.90;;;;;;4973249;28;19964;-73
2021/10/27 01:29:47;;;;;;;;;;;23.50;99.90;;;;;;4973280;28;19918;-73
2021/10/27 01:32:24;;;;;;;;;;;23.00;99.90;;;;;;4973165;28;19910;-75
2021/10/27 01:34:51;;;;;;;;;;;22.70;99.90;;;;;;4972660;28;19924;-78
2021/10/27 01:37:18;;;;;;;;;;;22.50;99.90;;;;;;4973102;28;19917;-74
2021/10/27 01:39:46;;;;;;;;;;;22.40;99.90;;;;;;4972288;28;19914;-81
2021/10/27 01:42:13;;;;;;;;;;;22.50;99.90;;;;;;4972715;28;19917;-76
2021/10/27 01:44:40;;;;;;;;;;;22.50;99.90;;;;;;4972523;28;19918;-75
2021/10/27 01:47:07;;;;;;;;;;;22.30;99.90;;;;;;4972964;28;20432;-75
2021/10/27 01:49:34;;;;;;;;;;;22.30;99.90;;;;;;4972625;28;19918;-74
2021/10/27 01:52:01;;;;;;;;;;;22.40;99.90;;;;;;4972495;28;19970;-80
2021/10/27 01:54:27;;;;;;;;;;;22.60;99.90;;;;;;4973021;28;20361;-79
2021/10/27 01:56:54;;;;;;;;;;;22.60;99.90;;;;;;4972693;28;19949;-78
2021/10/27 01:59:22;;;;;;;;;;;22.50;99.90;;;;;;4972715;28;19918;-75
2021/10/27 02:01:49;;;;;;;;;;;22.40;99.90;;;;;;4955260;28;20729;-79
2021/10/27 02:04:17;;;;;;;;;;;22.40;99.90;;;;;;4972047;28;19941;-79
2021/10/27 02:06:43;;;;;;;;;;;22.50;99.90;;;;;;4972136;28;20049;-76
2021/10/27 02:09:11;;;;;;;;;;;22.50;99.90;;;;;;4973098;28;19914;-74
2021/10/27 02:11:38;;;;;;;;;;;22.60;99.90;;;;;;4976486;28;20320;-73
2021/10/27 02:14:05;;;;;;;;;;;22.50;99.90;;;;;;4975870;28;20376;-72
2021/10/27 02:16:31;;;;;;;;;;;22.40;99.90;;;;;;4975963;28;20341;-78
2021/10/27 02:18:58;;;;;;;;;;;22.40;99.90;;;;;;4958677;28;19922;-74
2021/10/27 02:21:25;;;;;;;;;;;22.40;99.90;;;;;;4975998;28;20336;-77
2021/10/27 02:23:51;;;;;;;;;;;22.60;99.90;;;;;;4976017;28;19993;-75
2021/10/27 02:26:21;;;;;;;;;;;22.50;99.90;;;;;;4975714;28;19921;-74
2021/10/27 02:28:48;;;;;;;;;;;22.50;99.90;;;;;;4976487;28;19910;-74
2021/10/27 02:31:14;;;;;;;;;;;22.50;99.90;;;;;;4976109;28;19910;-75
2021/10/27 02:33:41;;;;;;;;;;;22.60;99.90;;;;;;4976151;28;19910;-74
2021/10/27 02:36:08;;;;;;;;;;;22.40;99.90;;;;;;4975778;28;19918;-79
2021/10/27 02:38:35;;;;;;;;;;;22.50;99.90;;;;;;4975974;28;19918;-77
2021/10/27 02:41:02;;;;;;;;;;;22.60;99.90;;;;;;4976107;28;19910;-74
2021/10/27 02:43:28;;;;;;;;;;;22.50;99.90;;;;;;4975674;28;19910;-77
2021/10/27 02:45:55;;;;;;;;;;;22.50;99.90;;;;;;4975749;28;19911;-74
2021/10/27 02:48:22;;;;;;;;;;;22.50;99.90;;;;;;4975597;28;19910;-81
2021/10/27 02:50:48;;;;;;;;;;;22.40;99.90;;;;;;4975434;28;19910;-79
2021/10/27 02:53:15;;;;;;;;;;;22.30;99.90;;;;;;4975702;28;20044;-75
2021/10/27 02:55:42;;;;;;;;;;;22.40;99.90;;;;;;4975343;28;19910;-75
2021/10/27 02:58:08;;;;;;;;;;;22.20;99.90;;;;;;4975535;28;19918;-75
2021/10/27 03:00:35;;;;;;;;;;;22.10;99.90;;;;;;4975956;28;19917;-76
2021/10/27 03:03:02;;;;;;;;;;;22.30;99.90;;;;;;4975507;28;20295;-79
2021/10/27 03:05:30;;;;;;;;;;;22.30;99.90;;;;;;4974922;28;19910;-76
2021/10/27 03:07:59;;;;;;;;;;;22.30;99.90;;;;;;4974919;28;20360;-74
2021/10/27 03:10:27;;;;;;;;;;;22.40;99.90;;;;;;4975380;28;20341;-77
2021/10/27 03:12:53;;;;;;;;;;;22.40;99.90;;;;;;4957989;28;19911;-81
2021/10/27 03:15:20;;;;;;;;;;;22.50;99.90;;;;;;4974698;28;19923;-80
2021/10/27 03:17:47;;;;;;;;;;;22.60;99.90;;;;;;4974946;28;20008;-77
2021/10/27 03:20:13;;;;;;;;;;;22.60;99.90;;;;;;4975010;28;19926;-76
2021/10/27 03:22:40;;;;;;;;;;;22.50;99.90;;;;;;4974481;28;19920;-82
2021/10/27 03:25:07;;;;;;;;;;;22.50;99.90;;;;;;4974788;28;19910;-81
2021/10/27 03:27:34;;;;;;;;;;;22.30;99.90;;;;;;4974978;28;19957;-82
2021/10/27 03:30:01;;;;;;;;;;;22.30;99.90;;;;;;4974872;28;19910;-75
2021/10/27 03:32:28;;;;;;;;;;;22.20;99.90;;;;;;4975232;28;19919;-79
2021/10/27 03:34:55;;;;;;;;;;;22.10;99.90;;;;;;4974515;28;19910;-82
2021/10/27 03:37:22;;;;;;;;;;;22.10;99.90;;;;;;4975082;28;19917;-79
2021/10/27 03:39:49;;;;;;;;;;;22.10;99.90;;;;;;4974903;28;19918;-77
2021/10/27 03:42:16;;;;;;;;;;;22.00;99.90;;;;;;4974718;28;20365;-77
2021/10/27 03:44:43;;;;;;;;;;;22.10;99.90;;;;;;4973967;28;19933;-81
2021/10/27 03:47:10;;;;;;;;;;;22.20;99.90;;;;;;4974610;28;19925;-74
2021/10/27 03:49:36;;;;;;;;;;;22.20;99.90;;;;;;4973966;28;19911;-74
2021/10/27 03:52:03;;;;;;;;;;;22.10;99.90;;;;;;4974215;28;20383;-81
2021/10/27 03:54:30;;;;;;;;;;;21.90;99.90;;;;;;4974543;28;19964;-80
2021/10/27 03:56:57;;;;;;;;;;;22.00;99.90;;;;;;4973448;28;20027;-80
2021/10/27 03:59:25;;;;;;;;;;;22.00;99.90;;;;;;4974652;28;20018;-74
2021/10/27 04:01:52;;;;;;;;;;;21.90;99.90;;;;;;4974022;28;19914;-77
2021/10/27 04:04:18;;;;;;;;;;;21.90;99.90;;;;;;4956451;28;19926;-74
2021/10/27 04:06:45;;;;;;;;;;;21.90;99.90;;;;;;4972640;28;19957;-77
2021/10/27 04:09:13;;;;;;;;;;;22.00;99.90;;;;;;4974451;28;20357;-81
2021/10/27 04:11:40;;;;;;;;;;;22.00;99.90;;;;;;4973885;28;19921;-78
2021/10/27 04:14:07;;;;;;;;;;;22.00;99.90;;;;;;4973497;28;20009;-80
2021/10/27 04:16:34;;;;;;;;;;;22.00;99.90;;;;;;4974173;28;19933;-80
2021/10/27 04:19:00;;;;;;;;;;;21.90;99.90;;;;;;4973879;28;19923;-81
2021/10/27 04:21:27;;;;;;;;;;;21.90;99.90;;;;;;4974027;28;19973;-78
2021/10/27 04:23:54;;;;;;;;;;;21.80;99.90;;;;;;4974207;28;19910;-81
2021/10/27 04:26:20;;;;;;;;;;;21.80;99.90;;;;;;4973446;28;19914;-80
2021/10/27 04:28:49;;;;;;;;;;;21.80;99.90;;;;;;4973870;28;19910;-81
2021/10/27 04:31:16;;;;;;;;;;;21.90;99.90;;;;;;4973764;28;19910;-81
2021/10/27 04:33:42;;;;;;;;;;;21.90;99.90;;;;;;4956046;28;19946;-77
2021/10/27 04:36:09;;;;;;;;;;;22.00;99.90;;;;;;4972930;28;19922;-75
2021/10/27 04:38:36;;;;;;;;;;;21.80;99.90;;;;;;4973408;28;19965;-80
2021/10/27 04:41:03;;;;;;;;;;;21.90;99.90;;;;;;4973283;28;19914;-81
2021/10/27 04:43:29;;;;;;;;;;;22.00;99.90;;;;;;4973292;28;19917;-80
2021/10/27 04:45:56;;;;;;;;;;;21.90;99.90;;;;;;4973551;28;19917;-81
2021/10/27 04:48:23;;;;;;;;;;;21.90;99.90;;;;;;4973251;28;19911;-81
2021/10/27 04:50:49;;;;;;;;;;;21.80;99.90;;;;;;4972897;28;20482;-82
2021/10/27 04:53:18;;;;;;;;;;;21.90;99.90;;;;;;4973481;28;19910;-76
2021/10/27 04:55:46;;;;;;;;;;;21.90;99.90;;;;;;4973054;28;19910;-76
2021/10/27 04:58:13;;;;;;;;;;;22.00;99.90;;;;;;4973251;28;20288;-81
2021/10/27 05:00:40;;;;;;;;;;;21.80;99.90;;;;;;4973244;28;19989;-73
2021/10/27 05:03:07;;;;;;;;;;;21.80;99.90;;;;;;4973434;28;20376;-74
2021/10/27 05:05:41;;;;;;;;;;;21.80;99.90;;;;;;4972862;28;19910;-73
2021/10/27 05:08:08;;;;;;;;;;;21.80;99.90;;;;;;4973001;28;19974;-75
2021/10/27 05:10:34;;;;;;;;;;;21.80;99.90;;;;;;4973300;28;19917;-74
2021/10/27 05:13:01;;;;;;;;;;;21.90;99.90;;;;;;4972826;28;20069;-74
2021/10/27 05:15:27;;;;;;;;;;;21.90;99.90;;;;;;4973210;28;20428;-78
2021/10/27 05:17:54;;;;;;;;;;;21.90;99.90;;;;;;4972977;28;19918;-76
2021/10/27 05:20:21;;;;;;;;;;;21.70;99.90;;;;;;4972775;28;19910;-79
2021/10/27 05:22:48;;;;;;;;;;;21.60;99.90;;;;;;4973037;28;19960;-76
2021/10/27 05:25:14;;;;;;;;;;;21.70;99.90;;;;;;4973010;28;20387;-77
2021/10/27 05:27:41;;;;;;;;;;;21.80;99.90;;;;;;4972957;28;20423;-75
2021/10/27 05:30:08;;;;;;;;;;;21.80;99.90;;;;;;4972802;28;19973;-80
2021/10/27 05:32:35;;;;;;;;;;;21.70;99.90;;;;;;4973186;28;19958;-73
2021/10/27 05:35:01;;;;;;;;;;;21.70;99.90;;;;;;4972804;28;19910;-75
2021/10/27 05:37:28;;;;;;;;;;;21.70;99.90;;;;;;4972813;28;19910;-76
2021/10/27 05:39:55;;;;;;;;;;;21.80;99.90;;;;;;4973345;28;19964;-82
2021/10/27 05:42:24;;;;;;;;;;;21.80;99.90;;;;;;4972613;28;20276;-79
2021/10/27 05:44:51;;;;;;;;;;;21.70;99.90;;;;;;4974397;28;20327;-78
2021/10/27 05:47:18;;;;;;;;;;;21.60;99.90;;;;;;4976734;28;19910;-78
2021/10/27 05:57:45;;;;;;;;;;;21.50;99.90;;;;;;4971752;28;20577;-78
2021/10/27 06:00:11;;;;;;;;;;;21.50;99.90;;;;;;4974478;28;19985;-80
2021/10/27 06:02:38;;;;;;;;;;;21.50;99.90;;;;;;4974011;28;20292;-79
2021/10/27 06:05:08;;;;;;;;;;;21.50;99.90;;;;;;4974137;28;19916;-73
2021/10/27 06:07:34;;;;;;;;;;;21.60;99.90;;;;;;4974293;28;20329;-79
2021/10/27 06:10:01;;;;;;;;;;;21.60;99.90;;;;;;4974190;28;19936;-78
2021/10/27 06:12:28;;;;;;;;;;;21.50;99.90;;;;;;4974516;28;19996;-78
2021/10/27 06:14:55;;;;;;;;;;;21.50;99.90;;;;;;4973932;28;19933;-78
2021/10/27 06:17:21;;;;;;;;;;;21.30;99.90;;;;;;4973709;28;19929;-75
2021/10/27 06:19:51;;;;;;;;;;;21.30;99.90;;;;;;4974074;28;19921;-76
2021/10/27 06:22:18;;;;;;;;;;;21.30;99.90;;;;;;4973988;28;20001;-78
2021/10/27 06:24:44;;;;;;;;;;;21.30;99.90;;;;;;4974128;28;20389;-78
2021/10/27 06:27:11;;;;;;;;;;;21.20;99.90;;;;;;4973997;28;20324;-81
2021/10/27 06:29:48;;;;;;;;;;;21.20;99.90;;;;;;4974156;28;19964;-75
2021/10/27 06:32:50;;;;;;;;;;;21.20;99.90;;;;;;4973733;28;19910;-79
2021/10/27 06:35:16;;;;;;;;;;;21.20;99.90;;;;;;4968742;28;20005;-78
2021/10/27 06:48:24;;;;;;;;;;;21.10;99.90;;;;;;4974017;28;20057;-78
2021/10/27 06:50:51;;;;;;;;;;;21.10;99.90;;;;;;4965380;28;20005;-75
2021/10/27 06:53:18;;;;;;;;;;;21.00;99.90;;;;;;4954275;29;19970;-79
2021/10/27 06:55:45;;;;;;;;;;;21.00;99.90;;;;;;4952965;28;19958;-79
2021/10/27 06:58:14;;;;;;;;;;;21.00;99.90;;;;;;4953940;29;19923;-77
2021/10/27 07:00:47;;;;;;;;;;;21.00;99.90;;;;;;4954738;29;19918;-76
2021/10/27 07:16:30;;;;;;;;;;;20.80;99.90;;;;;;4970438;28;20360;-80
2021/10/27 07:18:57;;;;;;;;;;;20.70;99.90;;;;;;4972883;28;19918;-79
2021/10/27 07:21:23;;;;;;;;;;;20.70;99.90;;;;;;4970596;28;19911;-80
2021/10/27 07:23:50;;;;;;;;;;;20.70;99.90;;;;;;4954214;28;19957;-78
2021/10/27 07:26:18;;;;;;;;;;;20.60;99.90;;;;;;4953687;28;19914;-81
2021/10/27 07:28:48;;;;;;;;;;;20.60;99.90;;;;;;4959946;28;20017;-82
2021/10/27 07:31:16;;;;;;;;;;;20.60;99.90;;;;;;4972347;28;19914;-82
2021/10/27 07:33:48;;;;;;;;;;;20.60;99.90;;;;;;4972536;28;19917;-77
2021/10/27 07:41:47;;;;;;;;;;;20.50;99.90;;;;;;4958871;28;19918;-74
2021/10/27 07:44:34;;;;;;;;;;;20.50;99.90;;;;;;4952854;29;19921;-74
2021/10/27 07:47:01;;;;;;;;;;;20.40;99.90;;;;;;4951768;29;20326;-82
2021/10/27 07:49:28;;;;;;;;;;;20.40;99.90;;;;;;4953460;28;19917;-78
2021/10/27 07:51:54;;;;;;;;;;;20.40;99.90;;;;;;4972795;28;20004;-81
2021/10/27 07:54:21;;;;;;;;;;;20.30;99.90;;;;;;4972552;28;19917;-83
2021/10/27 07:56:48;;;;;;;;;;;20.30;99.90;;;;;;4954554;28;19969;-79
2021/10/27 07:59:16;;;;;;;;;;;20.30;99.90;;;;;;4972501;28;19922;-82
2021/10/27 08:01:42;;;;;;;;;;;20.20;99.90;;;;;;4972126;28;19917;-81
2021/10/27 08:04:09;;;;;;;;;;;20.20;99.90;;;;;;4971206;28;20558;-81
2021/10/27 08:06:36;;;;;;;;;;;20.20;99.90;;;;;;4968226;28;20569;-77
2021/10/27 08:09:03;;;;;;;;;;;20.20;99.90;;;;;;4954101;29;20037;-75
2021/10/27 08:11:30;;;;;;;;;;;20.20;99.90;;;;;;4953246;29;19911;-73
2021/10/27 08:13:57;;;;;;;;;;;20.10;99.90;;;;;;4955168;28;19910;-81
2021/10/27 08:16:24;;;;;;;;;;;20.10;99.90;;;;;;4953870;29;19910;-81
2021/10/27 08:18:51;;;;;;;;;;;20.10;99.90;;;;;;4959073;28;20005;-81
2021/10/27 08:21:18;;;;;;;;;;;20.10;99.90;;;;;;4973829;28;20047;-79
2021/10/27 08:23:46;;;;;;;;;;;20.10;99.90;;;;;;4973907;28;19910;-80
2021/10/27 08:26:18;;;;;;;;;;;20.10;99.90;;;;;;4973283;28;19917;-81
2021/10/27 08:28:55;;;;;;;;;;;20.00;99.90;;;;;;4954724;29;19917;-82
2021/10/27 08:36:23;;;;;;;;;;;20.00;99.90;;;;;;4966641;28;20025;-78
2021/10/27 08:38:50;;;;;;;;;;;20.00;99.90;;;;;;4972701;28;19965;-81
2021/10/27 08:41:17;;;;;;;;;;;19.90;99.90;;;;;;4973946;28;19921;-80
2021/10/27 08:43:43;;;;;;;;;;;20.00;99.90;;;;;;4963055;28;19960;-80
2021/10/27 08:46:11;;;;;;;;;;;19.90;99.90;;;;;;4954642;28;20293;-81
2021/10/27 08:48:38;;;;;;;;;;;20.00;99.90;;;;;;4953728;29;20017;-81
2021/10/27 08:51:06;;;;;;;;;;;19.90;99.90;;;;;;4954453;29;19915;-83
2021/10/27 08:53:37;;;;;;;;;;;19.90;99.90;;;;;;4972080;28;20008;-82
2021/10/27 08:56:06;;;;;;;;;;;20.00;99.90;;;;;;4968234;28;19922;-82
2021/10/27 08:59:18;;;;;;;;;;;19.90;99.90;;;;;;4971383;28;19929;-83
2021/10/27 09:04:14;;;;;;;;;;;19.90;99.90;;;;;;4965655;28;20021;-81
2021/10/27 09:06:52;;;;;;;;;;;19.90;99.90;;;;;;4954793;28;19921;-82
2021/10/27 09:09:45;;;;;;;;;;;19.90;99.90;;;;;;4955470;28;20424;-81
2021/10/27 09:15:25;;;;;;;;;;;19.90;99.90;;;;;;4966582;28;20273;-81
2021/10/27 09:37:50;;;;;;;;;;;19.80;99.90;;;;;;4973825;28;20336;-78
2021/10/27 09:40:59;;;;;;;;;;;19.80;99.90;;;;;;4961494;28;19997;-81
2021/10/27 10:05:07;;;;;;;;;;;19.80;99.90;;;;;;4973116;28;19936;-80
2021/10/27 10:07:35;;;;;;;;;;;19.80;99.90;;;;;;4971726;28;19977;-81
2021/10/27 10:10:03;;;;;;;;;;;19.70;99.90;;;;;;4960926;28;19914;-76
2021/10/27 10:12:33;;;;;;;;;;;19.80;99.90;;;;;;4964363;28;19910;-78
2021/10/27 10:15:00;;;;;;;;;;;19.80;99.90;;;;;;4957931;28;19918;-77
2021/10/27 10:17:26;;;;;;;;;;;19.80;99.90;;;;;;4936476;29;20049;-81
2021/10/27 10:19:54;;;;;;;;;;;19.80;99.90;;;;;;4960840;28;19919;-79
2021/10/27 10:22:26;;;;;;;;;;;19.80;99.90;;;;;;4955826;28;19922;-76
2021/10/27 10:24:53;;;;;;;;;;;19.80;99.90;;;;;;4959332;28;19914;-79
2021/10/27 10:27:36;;;;;;;;;;;19.80;99.90;;;;;;4957971;28;20381;-75
2021/10/27 10:30:04;;;;;;;;;;;19.70;99.90;;;;;;4969754;28;20004;-76
2021/10/27 10:32:33;;;;;;;;;;;19.70;99.90;;;;;;4975620;28;19914;-78
2021/10/27 10:35:08;;;;;;;;;;;19.70;99.90;;;;;;4976077;28;19918;-80
2021/10/27 10:37:44;;;;;;;;;;;19.70;99.90;;;;;;4974796;28;20395;-82
2021/10/27 10:40:37;;;;;;;;;;;19.60;99.90;;;;;;4972082;28;19919;-80
2021/10/27 10:45:45;;;;;;;;;;;19.60;99.90;;;;;;4966389;28;19914;-79
2021/10/27 11:00:12;;;;;;;;;;;19.40;99.90;;;;;;4960274;28;19929;-80
2021/10/27 11:25:51;;;;;;;;;;;19.30;99.90;;;;;;4962256;28;19914;-80
2021/10/27 11:39:45;;;;;;;;;;;19.20;99.90;;;;;;4966137;28;20016;-77
2021/10/27 11:42:34;;;;;;;;;;;19.20;99.90;;;;;;4955139;28;20057;-78
2021/10/27 11:45:12;;;;;;;;;;;19.10;99.90;;;;;;4958472;28;20400;-74
2021/10/27 11:47:44;;;;;;;;;;;19.10;99.90;;;;;;4960073;28;19987;-77
2021/10/27 11:50:11;;;;;;;;;;;19.20;99.90;;;;;;4955592;28;19930;-76
2021/10/27 11:52:45;;;;;;;;;;;19.20;99.90;;;;;;4955881;28;19910;-78
2021/10/27 11:55:13;;;;;;;;;;;19.20;99.90;;;;;;4975076;28;19922;-81
2021/10/27 11:57:41;;;;;;;;;;;19.20;99.90;;;;;;4955798;28;19979;-80
2021/10/27 12:00:10;;;;;;;;;;;19.10;99.90;;;;;;4956204;28;20424;-77
2021/10/27 12:02:59;;;;;;;;;;;19.10;99.90;;;;;;4955276;28;19933;-79
2021/10/27 12:05:28;;;;;;;;;;;19.10;99.90;;;;;;4956425;28;19922;-76
2021/10/27 12:10:55;;;;;;;;;;;19.00;99.90;;;;;;4969495;28;19919;-78
2021/10/27 12:19:15;;;;;;;;;;;19.00;99.90;;;;;;4955521;28;19929;-77
2021/10/27 12:22:08;;;;;;;;;;;19.10;99.90;;;;;;4957011;28;20425;-78
2021/10/27 12:24:38;;;;;;;;;;;19.10;99.90;;;;;;4953166;29;20265;-76
2021/10/27 12:27:40;;;;;;;;;;;19.10;99.90;;;;;;4965895;28;19914;-80
2021/10/27 12:30:08;;;;;;;;;;;19.10;99.90;;;;;;4973746;28;19910;-81
2021/10/27 12:32:47;;;;;;;;;;;19.10;99.90;;;;;;4955780;28;19915;-80
2021/10/27 12:35:15;;;;;;;;;;;19.10;99.90;;;;;;4954769;28;19997;-80
2021/10/27 12:37:47;;;;;;;;;;;19.20;99.90;;;;;;4971482;28;19917;-82
2021/10/27 12:40:31;;;;;;;;;;;19.10;99.90;;;;;;4971023;28;19951;-82
2021/10/27 12:43:01;;;;;;;;;;;19.10;99.90;;;;;;4955791;28;19915;-79
2021/10/27 12:45:32;;;;;;;;;;;19.10;99.90;;;;;;4954909;28;19933;-80
2021/10/27 12:48:04;;;;;;;;;;;19.10;99.90;;;;;;4966559;28;19915;-80
2021/10/27 12:50:31;;;;;;;;;;;19.10;99.90;;;;;;4971770;28;19961;-80
2021/10/27 12:52:59;;;;;;;;;;;19.10;99.90;;;;;;4967492;28;20277;-81
2021/10/27 12:55:35;;;;;;;;;;;19.10;99.90;;;;;;4962399;28;19970;-79
2021/10/27 12:58:10;;;;;;;;;;;19.10;99.90;;;;;;4954572;28;20393;-80
2021/10/27 13:06:18;;;;;;;;;;;18.90;99.90;;;;;;4957256;28;19914;-80
2021/10/27 13:14:12;;;;;;;;;;;18.90;99.90;;;;;;4973973;28;19946;-81
2021/10/27 13:19:36;;;;;;;;;;;18.90;99.90;;;;;;4973767;28;19998;-81
2021/10/27 13:29:52;;;;;;;;;;;19.00;99.90;;;;;;4974125;28;19916;-80
2021/10/27 13:32:22;;;;;;;;;;;18.90;99.90;;;;;;4972956;28;19918;-80
2021/10/27 13:34:49;;;;;;;;;;;18.90;99.90;;;;;;4973736;28;19957;-78
2021/10/27 13:37:18;;;;;;;;;;;18.90;99.90;;;;;;4956414;28;19996;-80
2021/10/27 13:39:45;;;;;;;;;;;18.90;99.90;;;;;;4973388;28;20036;-81
2021/10/27 13:42:20;;;;;;;;;;;18.90;99.90;;;;;;4973261;28;20773;-80
2021/10/27 13:45:15;;;;;;;;;;;18.90;99.90;;;;;;4973320;28;19915;-80
2021/10/27 13:47:57;;;;;;;;;;;18.80;99.90;;;;;;4972896;28;19910;-78
2021/10/27 13:58:55;;;;;;;;;;;18.80;99.90;;;;;;4973510;28;19925;-80
2021/10/27 14:06:58;;;;;;;;;;;18.80;99.90;;;;;;4977101;28;20264;-78
2021/10/27 14:12:11;;;;;;;;;;;18.70;99.90;;;;;;4976924;28;20574;-80
2021/10/27 14:23:03;;;;;;;;;;;18.50;99.90;;;;;;4977086;28;19918;-79
2021/10/27 15:26:02;;;;;;;;;;;18.70;99.90;;;;;;4975603;28;19964;-80
2021/10/27 15:34:09;;;;;;;;;;;18.70;99.90;;;;;;4975640;28;19914;-80
2021/10/27 15:40:18;;;;;;;;;;;18.70;99.90;;;;;;4975641;28;19914;-81
2021/10/27 15:42:34;;;;;;;;;;;18.80;99.90;;;;;;4975447;28;20293;-79
2021/10/27 15:45:32;;;;;;;;;;;18.90;99.90;;;;;;4975494;28;19914;-80
2021/10/27 15:50:59;;;;;;;;;;;19.10;99.90;;;;;;4975717;28;19918;-80
2021/10/27 15:53:26;;;;;;;;;;;19.10;99.90;;;;;;4975345;28;19964;-80
2021/10/27 15:55:53;;;;;;;;;;;19.20;99.90;;;;;;4975312;28;19989;-80
2021/10/27 15:58:20;;;;;;;;;;;19.20;99.90;;;;;;4974875;28;19933;-79
2021/10/27 16:00:47;;;;;;;;;;;19.20;99.90;;;;;;4974934;28;19964;-79
2021/10/27 16:03:15;;;;;;;;;;;19.30;99.90;;;;;;4974628;28;20361;-81
2021/10/27 16:05:44;;;;;;;;;;;19.20;99.90;;;;;;4975104;28;20361;-80
2021/10/27 16:08:12;;;;;;;;;;;19.20;99.90;;;;;;4974638;28;19914;-81
2021/10/27 16:10:40;;;;;;;;;;;19.20;99.90;;;;;;4974764;28;20360;-81
2021/10/27 16:13:06;;;;;;;;;;;19.20;99.90;;;;;;4974859;28;20383;-80
2021/10/27 16:15:41;;;;;;;;;;;19.20;99.90;;;;;;4974838;28;20373;-81
2021/10/27 16:18:11;;;;;;;;;;;19.20;99.90;;;;;;4974808;28;20029;-80
2021/10/27 16:20:38;;;;;;;;;;;19.10;99.90;;;;;;4974647;28;19910;-79
2021/10/27 16:23:05;;;;;;;;;;;19.10;99.90;;;;;;4974905;28;19965;-80
2021/10/27 16:25:32;;;;;;;;;;;19.00;99.90;;;;;;4974761;28;19916;-78
2021/10/27 16:27:59;;;;;;;;;;;18.90;99.90;;;;;;4974469;28;19910;-81
2021/10/27 16:30:26;;;;;;;;;;;18.90;99.90;;;;;;4974515;28;19910;-81
2021/10/27 16:32:52;;;;;;;;;;;18.70;99.90;;;;;;4974592;28;19942;-81
2021/10/27 16:35:19;;;;;;;;;;;18.60;99.90;;;;;;4974051;28;19938;-80
2021/10/27 16:37:46;;;;;;;;;;;18.60;99.90;;;;;;4973604;28;19968;-80
2021/10/27 16:40:13;;;;;;;;;;;18.50;99.90;;;;;;4964497;28;20389;-79
2021/10/27 16:42:40;;;;;;;;;;;18.40;99.90;;;;;;4955078;29;19910;-80
2021/10/27 16:45:08;;;;;;;;;;;18.40;99.90;;;;;;4956118;28;19914;-81
2021/10/27 16:47:34;;;;;;;;;;;18.30;99.90;;;;;;4961623;28;19922;-81
2021/10/27 16:50:02;;;;;;;;;;;18.30;99.90;;;;;;4972507;28;19914;-80
2021/10/27 16:52:28;;;;;;;;;;;18.30;99.90;;;;;;4971877;28;19914;-80
2021/10/27 16:54:56;;;;;;;;;;;18.30;99.90;;;;;;4974064;28;19918;-81
2021/10/27 16:57:23;;;;;;;;;;;18.30;99.90;;;;;;4969627;28;19921;-81
2021/10/27 16:59:50;;;;;;;;;;;18.20;99.90;;;;;;4954405;28;19918;-79
2021/10/27 17:02:17;;;;;;;;;;;18.30;99.90;;;;;;4954111;29;20424;-81
2021/10/27 17:04:44;;;;;;;;;;;18.30;99.90;;;;;;4954480;29;19919;-81
2021/10/27 17:07:10;;;;;;;;;;;18.30;99.90;;;;;;4959345;28;19918;-79
2021/10/27 17:09:38;;;;;;;;;;;18.30;99.90;;;;;;4972977;28;19914;-80
2021/10/27 17:18:14;;;;;;;;;;;18.10;99.90;;;;;;4954710;29;19946;-79
2021/10/27 17:20:41;;;;;;;;;;;18.00;99.90;;;;;;4954737;29;20407;-80
2021/10/27 17:23:15;;;;;;;;;;;18.00;99.90;;;;;;4955514;28;19910;-80
2021/10/27 17:25:42;;;;;;;;;;;18.00;99.90;;;;;;4955172;29;19937;-79
2021/10/27 17:28:09;;;;;;;;;;;18.00;99.90;;;;;;4964532;28;19918;-80
2021/10/27 17:30:36;;;;;;;;;;;18.00;99.90;;;;;;4958087;28;19990;-81
2021/10/27 17:33:04;;;;;;;;;;;17.90;99.90;;;;;;4967214;28;20350;-76
2021/10/27 17:35:31;;;;;;;;;;;17.90;99.90;;;;;;4972263;28;19918;-81
2021/10/27 17:37:57;;;;;;;;;;;17.90;99.90;;;;;;4972958;28;19910;-80
2021/10/27 17:40:30;;;;;;;;;;;17.90;99.90;;;;;;4974228;28;20240;-81
2021/10/27 17:42:57;;;;;;;;;;;18.00;99.90;;;;;;4962785;28;19915;-79
2021/10/27 17:45:33;;;;;;;;;;;18.00;99.90;;;;;;4957919;29;20373;-80
2021/10/27 17:48:08;;;;;;;;;;;18.00;99.90;;;;;;4959969;28;19911;-79
2021/10/27 17:50:50;;;;;;;;;;;18.00;99.90;;;;;;4977192;28;20254;-79
2021/10/27 17:58:39;;;;;;;;;;;18.10;99.90;;;;;;4958024;29;19925;-77
2021/10/27 18:01:13;;;;;;;;;;;18.00;99.90;;;;;;4964927;28;20000;-77
2021/10/27 18:03:43;;;;;;;;;;;18.00;99.90;;;;;;4957512;28;20065;-77
2021/10/27 18:06:11;;;;;;;;;;;18.00;99.90;;;;;;4957668;28;20494;-78
2021/10/27 18:08:40;;;;;;;;;;;18.00;99.90;;;;;;4964299;28;20341;-77
2021/10/27 18:11:13;;;;;;;;;;;17.90;99.90;;;;;;4968924;28;19914;-78
2021/10/27 18:13:44;;;;;;;;;;;17.80;99.90;;;;;;4958731;28;19921;-80
2021/10/27 18:18:51;;;;;;;;;;;17.90;99.90;;;;;;4968474;28;20325;-80
2021/10/27 18:21:42;;;;;;;;;;;17.80;99.90;;;;;;4967980;28;19922;-80
2021/10/27 18:37:46;;;;;;;;;;;17.80;99.90;;;;;;4958273;28;19929;-80
2021/10/27 18:40:31;;;;;;;;;;;17.70;99.90;;;;;;4961408;28;20284;-78
2021/10/27 18:43:17;;;;;;;;;;;17.60;99.90;;;;;;4967711;28;20161;-80
2021/10/27 18:45:47;;;;;;;;;;;17.70;99.90;;;;;;4957663;29;19914;-79
2021/10/27 18:48:15;;;;;;;;;;;17.60;99.90;;;;;;4962322;28;19922;-80
2021/10/27 18:50:54;;;;;;;;;;;17.60;99.90;;;;;;4958577;28;19914;-79
2021/10/27 18:53:55;;;;;;;;;;;17.50;99.90;;;;;;4956932;28;19914;-77
2021/10/27 19:12:13;;;;;;;;;;;17.30;99.90;;;;;;4956324;29;19926;-75
2021/10/27 19:17:26;;;;;;;;;;;17.20;99.90;;;;;;4958880;28;20281;-73
2021/10/27 19:19:53;;;;;;;;;;;17.20;99.90;;;;;;4974724;28;20361;-78
2021/10/27 19:22:21;;;;;;;;;;;17.20;99.90;;;;;;4975643;28;19914;-76
2021/10/27 19:27:28;;;;;;;;;;;17.20;99.90;;;;;;4956250;28;19929;-78
2021/10/27 19:30:14;;;;;;;;;;;17.10;99.90;;;;;;4964877;28;19949;-80
2021/10/27 19:32:55;;;;;;;;;;;17.10;99.90;;;;;;4958218;28;19919;-77
2021/10/27 20:18:50;;;;;;;;;;;17.60;99.90;;;;;;4973297;28;20415;-77
2021/10/27 20:54:01;;;;;;;;;;;18.50;99.90;;;;;;4918486;29;20007;-78
2021/10/27 20:56:31;;;;;;;;;;;18.60;99.90;;;;;;4955669;28;19957;-80
2021/10/27 20:59:17;;;;;;;;;;;18.80;99.90;;;;;;4954456;29;19929;-75
2021/10/27 21:12:43;;;;;;;;;;;19.20;99.90;;;;;;4962538;28;19921;-77